Time;durP1;ratioP1;P1;durP2;ratioP2;P2;SDS_P1;SDS_P2;PMS_P1;PMS_P2;Temp;Humidity;BMP_temperature;BMP_pressure;BME280_temperature;BME280_humidity;BME280_pressure;Samples;Min_cycle;Max_cycle;Signal;HPM_P1;HPM_P2
2022/12/23 00:02:10;;;;;;;15.15;10.27;;;;;;;9.67;100.00;99315.97;5013063;28;20292;-76
2022/12/23 00:04:36;;;;;;;16.20;10.45;;;;;;;9.62;100.00;99308.16;5014700;28;20198;-75
2022/12/23 00:07:03;;;;;;;19.08;10.25;;;;;;;9.69;100.00;99305.97;5014785;28;20745;-75
2022/12/23 00:09:29;;;;;;;19.23;11.52;;;;;;;9.66;100.00;99312.41;5013979;28;20210;-76
2022/12/23 00:17:25;;;;;;;15.63;7.75;;;;;;;9.64;100.00;99313.47;5014838;28;20286;-77
2022/12/23 00:19:52;;;;;;;15.57;7.72;;;;;;;9.57;100.00;99308.44;5013817;28;20202;-75
2022/12/23 00:22:18;;;;;;;16.90;7.45;;;;;;;9.60;100.00;99310.06;5014616;28;20619;-78
2022/12/23 00:24:45;;;;;;;12.77;8.57;;;;;;;9.57;100.00;99304.88;5013311;28;20207;-75
2022/12/23 00:27:12;;;;;;;15.57;9.20;;;;;;;9.63;100.00;99311.72;5014031;28;20210;-73
2022/12/23 00:29:39;;;;;;;13.77;8.60;;;;;;;9.53;100.00;99304.19;5013534;28;20217;-75
2022/12/23 00:32:05;;;;;;;12.63;8.35;;;;;;;9.62;100.00;99296.56;5014127;28;20660;-77
2022/12/23 00:34:32;;;;;;;15.20;8.40;;;;;;;9.64;100.00;99297.34;5022502;28;20202;-75
2022/12/23 00:36:58;;;;;;;16.73;8.65;;;;;;;9.66;100.00;99295.41;5025085;28;20634;-76
2022/12/23 00:45:14;;;;;;;10.48;7.53;;;;;;;9.54;100.00;99289.81;5024528;28;20182;-76
2022/12/23 00:50:21;;;;;;;13.65;6.95;;;;;;;9.57;100.00;99289.63;4972862;28;20200;-76
2022/12/23 00:52:47;;;;;;;10.95;7.25;;;;;;;9.59;100.00;99295.78;4972913;28;20207;-75
2022/12/23 00:55:14;;;;;;;8.32;5.13;;;;;;;9.62;100.00;99288.50;4972547;28;20204;-75
2022/12/23 00:57:40;;;;;;;10.20;4.30;;;;;;;9.67;100.00;99289.94;4971619;28;20204;-75
2022/12/23 01:00:10;;;;;;;5.50;4.13;;;;;;;9.61;100.00;99293.00;4972614;28;20231;-76
2022/12/23 01:05:38;;;;;;;5.32;4.00;;;;;;;9.66;100.00;99298.97;4971867;28;20207;-76
2022/12/23 01:08:09;;;;;;;8.63;3.80;;;;;;;9.62;100.00;99299.25;4971410;28;20469;-74
2022/12/23 01:10:36;;;;;;;5.95;3.60;;;;;;;9.68;100.00;99298.84;4971655;28;20210;-75
2022/12/23 01:13:03;;;;;;;3.65;2.80;;;;;;;9.67;100.00;99307.88;4971866;28;20204;-75
2022/12/23 01:15:31;;;;;;;5.32;3.60;;;;;;;9.68;100.00;99304.22;4971766;28;20208;-77
2022/12/23 01:17:57;;;;;;;5.32;3.00;;;;;;;9.68;100.00;99307.81;4971309;28;20215;-76
2022/12/23 01:20:24;;;;;;;8.93;3.35;;;;;;;9.66;100.00;99307.03;4972110;28;20223;-76
2022/12/23 01:22:51;;;;;;;7.15;3.10;;;;;;;9.72;100.00;99308.47;4971979;28;20208;-75
2022/12/23 01:25:18;;;;;;;7.53;3.85;;;;;;;9.72;100.00;99312.06;4972085;28;20637;-76
2022/12/23 01:27:44;;;;;;;5.60;3.08;;;;;;;9.64;100.00;99314.31;4993763;28;20293;-74
2022/12/23 01:30:11;;;;;;;3.47;2.60;;;;;;;9.63;100.00;99311.72;5014781;28;20209;-75
2022/12/23 01:32:39;;;;;;;5.15;3.47;;;;;;;9.60;100.00;99313.63;5014437;28;20287;-75
2022/12/23 01:35:06;;;;;;;4.57;2.55;;;;;;;9.67;100.00;99326.72;5017336;28;20241;-76
2022/12/23 01:37:32;;;;;;;6.00;3.83;;;;;;;9.67;100.00;99329.41;5022611;28;20695;-76
2022/12/23 01:39:59;;;;;;;3.70;2.00;;;;;;;9.68;100.00;99341.88;5029550;28;20203;-74
2022/12/23 01:42:43;;;;;;;2.38;1.60;;;;;;;9.68;100.00;99342.75;5028585;28;20223;-74
2022/12/23 01:45:15;;;;;;;3.35;2.00;;;;;;;9.72;100.00;99354.19;5015100;28;20243;-76
2022/12/23 01:47:49;;;;;;;5.30;2.00;;;;;;;9.67;100.00;99357.13;5013551;28;20689;-76
2022/12/23 01:50:18;;;;;;;2.95;1.95;;;;;;;9.66;100.00;99360.81;5013833;28;20210;-77
2022/12/23 01:52:47;;;;;;;3.35;1.85;;;;;;;9.69;100.00;99357.06;5013148;28;20234;-77
2022/12/23 01:55:18;;;;;;;3.15;1.73;;;;;;;9.69;100.00;99359.75;5014892;28;20210;-75
2022/12/23 01:57:46;;;;;;;3.05;2.50;;;;;;;9.66;100.00;99365.31;5016255;28;20202;-75
2022/12/23 02:05:45;;;;;;;3.65;2.28;;;;;;;9.63;100.00;99368.16;5016157;28;20190;-75
2022/12/23 02:11:24;;;;;;;3.00;2.05;;;;;;;9.65;100.00;99364.44;5016341;28;20782;-74
2022/12/23 02:16:54;;;;;;;3.25;1.70;;;;;;;9.63;100.00;99377.09;5015191;28;20243;-76
2022/12/23 02:19:42;;;;;;;3.65;1.63;;;;;;;9.63;100.00;99379.78;5014514;28;20209;-76
2022/12/23 02:22:30;;;;;;;3.05;1.70;;;;;;;9.66;100.00;99386.81;5013696;28;20245;-74
2022/12/23 02:25:46;;;;;;;4.03;1.95;;;;;;;9.64;100.00;99389.59;5013756;28;20334;-75
2022/12/23 02:28:46;;;;;;;2.80;1.85;;;;;;;9.63;100.00;99403.09;5012822;28;20580;-77
2022/12/23 02:31:23;;;;;;;3.70;1.60;;;;;;;9.64;100.00;99403.03;5013558;28;20236;-75
2022/12/23 02:34:00;;;;;;;4.57;2.53;;;;;;;9.61;100.00;99408.59;5013144;28;20687;-75
2022/12/23 02:36:37;;;;;;;2.90;2.08;;;;;;;9.63;100.00;99409.34;5013271;28;20197;-76
2022/12/23 02:39:07;;;;;;;5.35;1.83;;;;;;;9.65;100.00;99417.34;5011875;28;20680;-75
2022/12/23 02:41:41;;;;;;;5.18;2.55;;;;;;;9.65;100.00;99407.44;5012221;28;20747;-76
2022/12/23 02:44:18;;;;;;;2.70;2.30;;;;;;;9.71;100.00;99417.00;5012490;28;20260;-75
2022/12/23 02:46:50;;;;;;;4.30;2.03;;;;;;;9.63;100.00;99416.56;5012762;28;20204;-73
2022/12/23 02:49:23;;;;;;;4.53;2.83;;;;;;;9.66;100.00;99425.31;5015649;28;20716;-76
2022/12/23 02:51:53;;;;;;;4.43;2.67;;;;;;;9.58;100.00;99414.13;5017006;28;20599;-74
2022/12/23 02:54:25;;;;;;;3.65;2.58;;;;;;;9.56;100.00;99422.25;5016110;28;20577;-76
2022/12/23 02:56:53;;;;;;;5.18;2.70;;;;;;;9.57;100.00;99415.09;5015904;28;20202;-76
2022/12/23 02:59:23;;;;;;;5.95;2.67;;;;;;;9.66;100.00;99422.63;5015085;28;20750;-76
2022/12/23 03:01:52;;;;;;;5.55;3.20;;;;;;;9.66;100.00;99424.47;5015540;28;20237;-76
2022/12/23 03:04:19;;;;;;;4.90;3.47;;;;;;;9.59;100.00;99416.75;5016440;28;20206;-77
2022/12/23 03:06:49;;;;;;;5.10;3.17;;;;;;;9.58;100.00;99424.88;5016201;28;20680;-76
2022/12/23 03:09:24;;;;;;;5.18;2.95;;;;;;;9.49;100.00;99422.72;5015557;28;20212;-77
2022/12/23 03:11:59;;;;;;;5.22;3.15;;;;;;;9.55;100.00;99422.38;5015387;28;20320;-75
2022/12/23 03:14:41;;;;;;;4.57;3.38;;;;;;;9.60;100.00;99409.53;5015534;28;20190;-76
2022/12/23 03:17:20;;;;;;;7.03;4.05;;;;;;;9.47;100.00;99430.00;5016973;28;20671;-73
2022/12/23 03:19:53;;;;;;;7.07;4.00;;;;;;;9.47;100.00;99419.25;5022407;28;20205;-74
2022/12/23 03:22:24;;;;;;;5.55;4.30;;;;;;;9.48;100.00;99421.84;5019381;28;20219;-74
2022/12/23 03:24:57;;;;;;;7.85;4.72;;;;;;;9.51;100.00;99434.25;5015694;28;20562;-75
2022/12/23 03:27:27;;;;;;;9.95;5.70;;;;;;;9.46;100.00;99428.28;5014805;28;20199;-75
2022/12/23 03:30:00;;;;;;;10.45;6.05;;;;;;;9.34;100.00;99433.38;5015133;28;20588;-75
2022/12/23 03:32:32;;;;;;;8.10;5.60;;;;;;;9.34;100.00;99433.38;5015072;28;20253;-75
2022/12/23 03:35:01;;;;;;;10.65;5.75;;;;;;;9.44;100.00;99435.56;5014986;28;20645;-76
2022/12/23 03:37:30;;;;;;;11.05;6.45;;;;;;;9.43;100.00;99431.09;5014736;28;20202;-75
2022/12/23 03:40:03;;;;;;;10.32;6.20;;;;;;;9.37;100.00;99430.50;5014642;28;20217;-75
2022/12/23 03:42:36;;;;;;;13.15;7.35;;;;;;;9.38;100.00;99442.13;5014976;28;20218;-75
2022/12/23 03:45:08;;;;;;;14.07;7.88;;;;;;;9.30;100.00;99445.25;5015161;28;20183;-77
2022/12/23 03:47:43;;;;;;;14.25;6.72;;;;;;;9.30;100.00;99455.13;5014358;28;20190;-77
2022/12/23 03:50:12;;;;;;;13.35;7.15;;;;;;;9.32;100.00;99462.16;5014720;28;20198;-76
2022/12/23 03:52:43;;;;;;;13.15;7.15;;;;;;;9.37;100.00;99469.97;5014635;28;20249;-76
2022/12/23 03:55:16;;;;;;;14.05;8.05;;;;;;;9.32;100.00;99483.66;5014266;28;20203;-75
2022/12/23 03:57:47;;;;;;;18.33;9.02;;;;;;;9.32;100.00;99483.66;5014090;28;20664;-74
2022/12/23 04:00:14;;;;;;;21.10;8.85;;;;;;;9.28;100.00;99482.06;5014488;28;20663;-76
2022/12/23 04:02:52;;;;;;;20.77;9.25;;;;;;;9.29;100.00;99485.63;5013935;28;20249;-76
2022/12/23 04:05:25;;;;;;;20.52;10.05;;;;;;;9.31;100.00;99473.84;5014661;28;20186;-75
2022/12/23 04:07:55;;;;;;;19.38;10.48;;;;;;;9.33;100.00;99481.81;5013478;28;20203;-77
2022/12/23 04:10:23;;;;;;;16.67;8.50;;;;;;;9.29;100.00;99481.09;5014409;28;20179;-77
2022/12/23 04:12:50;;;;;;;17.52;10.07;;;;;;;9.30;100.00;99493.59;5014392;28;20226;-78
2022/12/23 04:15:20;;;;;;;18.48;9.10;;;;;;;9.21;100.00;99501.31;5014584;28;20290;-76
2022/12/23 04:17:48;;;;;;;19.23;9.82;;;;;;;9.24;100.00;99493.94;5013665;28;20206;-76
2022/12/23 04:20:15;;;;;;;16.15;10.05;;;;;;;9.18;100.00;99499.66;5014495;28;20207;-76
2022/12/23 04:22:43;;;;;;;21.30;11.10;;;;;;;9.18;100.00;99500.53;5013901;28;20233;-77
2022/12/23 04:25:10;;;;;;;23.20;10.82;;;;;;;9.10;100.00;99501.88;5014413;28;20628;-75
2022/12/23 04:27:37;;;;;;;17.75;10.23;;;;;;;9.06;100.00;99481.50;5013558;28;20579;-76
2022/12/23 04:30:04;;;;;;;19.30;10.30;;;;;;;9.01;100.00;99492.50;5013795;28;20293;-74
2022/12/23 04:32:30;;;;;;;17.08;9.52;;;;;;;8.99;100.00;99494.38;5014652;28;20591;-74
2022/12/23 04:34:58;;;;;;;17.02;9.15;;;;;;;8.95;100.00;99492.81;5013786;28;20213;-75
2022/12/23 04:37:25;;;;;;;16.02;8.68;;;;;;;8.87;100.00;99484.31;5013582;28;20676;-75
2022/12/23 04:39:51;;;;;;;15.30;8.65;;;;;;;8.86;100.00;99487.94;5013142;28;20210;-76
2022/12/23 04:42:18;;;;;;;16.63;7.50;;;;;;;8.86;100.00;99482.56;5014074;28;20219;-77
2022/12/23 04:44:44;;;;;;;16.40;7.43;;;;;;;8.81;100.00;99487.31;5015611;28;20203;-74
2022/12/23 04:47:11;;;;;;;13.23;7.82;;;;;;;8.81;100.00;99480.13;5014203;28;20198;-76
2022/12/23 04:49:37;;;;;;;13.90;7.60;;;;;;;8.79;100.00;99491.88;5013644;28;20616;-75
2022/12/23 04:52:06;;;;;;;14.55;7.70;;;;;;;8.78;100.00;99491.03;5013389;28;20228;-75
2022/12/23 04:54:33;;;;;;;12.68;7.47;;;;;;;8.72;100.00;99494.03;5013367;28;20236;-76
2022/12/23 04:56:59;;;;;;;12.88;7.43;;;;;;;8.72;100.00;99504.75;5015525;28;20208;-76
2022/12/23 04:59:26;;;;;;;14.32;6.75;;;;;;;8.77;100.00;99510.75;5013365;28;20611;-75
2022/12/23 05:01:52;;;;;;;13.82;7.28;;;;;;;8.68;100.00;99506.75;5013601;28;20222;-75
2022/12/23 05:04:19;;;;;;;15.35;7.63;;;;;;;8.70;100.00;99502.16;5013614;28;20198;-74
2022/12/23 05:06:45;;;;;;;16.80;8.05;;;;;;;8.68;100.00;99513.91;5013699;28;20205;-74
2022/12/23 05:09:13;;;;;;;16.80;8.95;;;;;;;8.64;100.00;99517.69;5012499;28;20199;-74
2022/12/23 05:11:40;;;;;;;17.35;9.20;;;;;;;8.68;100.00;99508.53;5013361;28;20219;-74
2022/12/23 05:14:06;;;;;;;14.90;8.13;;;;;;;8.66;100.00;99508.66;5013677;28;20213;-74
2022/12/23 05:16:33;;;;;;;14.80;8.45;;;;;;;8.62;100.00;99496.34;5013419;28;20209;-74
2022/12/23 05:19:00;;;;;;;17.63;7.43;;;;;;;8.65;100.00;99490.78;5013171;28;20202;-73
2022/12/23 05:21:26;;;;;;;18.55;8.40;;;;;;;8.62;100.00;99493.66;5013459;28;20446;-75
2022/12/23 05:23:53;;;;;;;16.83;8.38;;;;;;;8.66;100.00;99500.59;5013321;28;20199;-73
2022/12/23 05:26:21;;;;;;;12.60;7.38;;;;;;;8.62;100.00;99508.88;5013854;28;20206;-74
2022/12/23 05:28:47;;;;;;;11.25;6.80;;;;;;;8.68;100.00;99516.59;5012812;28;20700;-74
2022/12/23 05:31:15;;;;;;;12.20;7.25;;;;;;;8.61;100.00;99516.03;5013276;28;20226;-74
2022/12/23 05:33:42;;;;;;;10.73;7.30;;;;;;;8.67;100.00;99517.56;5013277;28;20642;-74
2022/12/23 05:36:09;;;;;;;11.52;6.72;;;;;;;8.68;100.00;99521.97;5013618;28;20214;-74
2022/12/23 05:38:36;;;;;;;11.27;6.15;;;;;;;8.70;100.00;99525.44;5012964;28;20681;-75
2022/12/23 05:41:03;;;;;;;11.18;5.85;;;;;;;8.67;100.00;99520.25;5013604;28;20285;-75
2022/12/23 05:43:31;;;;;;;9.63;5.20;;;;;;;8.68;100.00;99522.88;5013805;28;20205;-75
2022/12/23 05:45:58;;;;;;;10.15;5.65;;;;;;;8.68;100.00;99521.97;5013215;28;20206;-74
2022/12/23 05:48:25;;;;;;;14.40;10.10;;;;;;;8.64;100.00;99520.38;5012369;28;20199;-74
2022/12/23 05:50:52;;;;;;;10.27;6.03;;;;;;;8.69;100.00;99524.59;5013165;28;20255;-73
2022/12/23 05:53:20;;;;;;;10.02;6.55;;;;;;;8.64;100.00;99520.38;5012966;28;20230;-76
2022/12/23 05:55:46;;;;;;;8.98;5.70;;;;;;;8.65;100.00;99527.50;5013005;28;20202;-73
2022/12/23 05:58:13;;;;;;;9.40;5.15;;;;;;;8.68;100.00;99525.53;5012924;28;20206;-75
2022/12/23 06:00:41;;;;;;;10.05;5.55;;;;;;;8.65;100.00;99527.50;5012903;28;20240;-74
2022/12/23 06:03:08;;;;;;;10.38;5.15;;;;;;;8.66;100.00;99534.59;5013506;28;20183;-73
2022/12/23 06:05:36;;;;;;;6.50;4.03;;;;;;;8.62;100.00;99539.28;5013770;28;20213;-74
2022/12/23 06:08:03;;;;;;;9.13;4.85;;;;;;;8.53;100.00;99540.59;5013225;28;20636;-74
2022/12/23 06:10:29;;;;;;;6.32;3.60;;;;;;;8.52;100.00;99532.63;5014911;28;20576;-74
2022/12/23 06:12:56;;;;;;;5.78;3.85;;;;;;;8.41;100.00;99538.56;5013380;28;20227;-74
2022/12/23 06:15:22;;;;;;;6.30;3.90;;;;;;;8.42;100.00;99534.91;5021259;28;20623;-74
2022/12/23 06:17:50;;;;;;;5.28;3.30;;;;;;;8.34;100.00;99540.63;5019467;28;20226;-74
2022/12/23 06:20:17;;;;;;;5.75;3.13;;;;;;;8.28;100.00;99538.25;5020082;28;20206;-74
2022/12/23 06:22:43;;;;;;;4.45;2.85;;;;;;;8.29;100.00;99536.44;5029726;28;20290;-73
2022/12/23 06:25:10;;;;;;;5.50;3.30;;;;;;;8.37;100.00;99531.56;5032098;28;20207;-72
2022/12/23 06:27:37;;;;;;;4.78;2.92;;;;;;;8.33;100.00;99540.72;5027431;28;20211;-75
2022/12/23 06:30:03;;;;;;;4.10;2.80;;;;;;;8.35;100.00;99544.19;5019665;28;20198;-75
2022/12/23 06:32:30;;;;;;;5.28;3.30;;;;;;;8.36;100.00;99548.59;5016897;28;20230;-75
2022/12/23 06:34:58;;;;;;;8.05;3.20;;;;;;;8.44;100.00;99546.44;5016666;28;20199;-74
2022/12/23 06:37:24;;;;;;;5.30;3.10;;;;;;;8.45;100.00;99542.78;5016746;28;20290;-74
2022/12/23 06:39:51;;;;;;;3.05;2.35;;;;;;;8.45;100.00;99547.31;5016397;28;20350;-74
2022/12/23 06:42:17;;;;;;;3.65;3.00;;;;;;;8.54;100.00;99546.84;5019409;28;20305;-74
2022/12/23 06:44:44;;;;;;;3.95;2.50;;;;;;;8.54;100.00;99553.06;5020935;28;20289;-76
2022/12/23 06:47:10;;;;;;;4.90;3.00;;;;;;;8.59;100.00;99549.28;5016866;28;20317;-74
2022/12/23 06:49:37;;;;;;;3.42;2.55;;;;;;;8.55;100.00;99560.19;5016711;28;20218;-75
2022/12/23 06:52:05;;;;;;;5.28;2.85;;;;;;;8.59;100.00;99558.19;5017266;28;20219;-74
2022/12/23 06:54:32;;;;;;;6.70;3.25;;;;;;;8.67;100.00;99573.94;5017982;28;20206;-74
2022/12/23 06:56:58;;;;;;;3.60;2.70;;;;;;;8.73;100.00;99566.44;5017471;28;20211;-74
2022/12/23 06:59:25;;;;;;;4.00;2.90;;;;;;;8.73;100.00;99576.31;5017041;28;20590;-74
2022/12/23 07:01:51;;;;;;;4.20;3.00;;;;;;;8.73;100.00;99574.50;5016502;28;20610;-74
2022/12/23 07:04:18;;;;;;;4.18;3.20;;;;;;;8.82;100.00;99575.84;5017370;28;20213;-75
2022/12/23 07:06:45;;;;;;;3.45;2.83;;;;;;;8.81;100.00;99576.78;5018127;28;20298;-75
2022/12/23 07:09:12;;;;;;;4.00;2.83;;;;;;;8.88;100.00;99574.63;5017924;28;20213;-73
2022/12/23 07:11:39;;;;;;;5.50;3.60;;;;;;;8.83;100.00;99560.59;5029931;28;20250;-74
2022/12/23 07:14:05;;;;;;;5.28;3.55;;;;;;;8.87;100.00;99559.50;5021338;28;20222;-75
2022/12/23 07:16:32;;;;;;;4.28;3.03;;;;;;;8.90;100.00;99552.13;5017015;28;20312;-74
2022/12/23 07:18:58;;;;;;;4.40;2.85;;;;;;;8.92;100.00;99552.91;5017430;28;20203;-76
2022/12/23 07:21:25;;;;;;;3.63;3.10;;;;;;;8.94;100.00;99544.78;5018280;28;20642;-75
2022/12/23 07:23:52;;;;;;;4.00;2.80;;;;;;;8.97;100.00;99556.22;5017749;28;20205;-75
2022/12/23 07:26:20;;;;;;;6.82;4.55;;;;;;;9.00;100.00;99554.34;5016631;28;20207;-74
2022/12/23 07:28:47;;;;;;;10.43;4.40;;;;;;;8.97;100.00;99553.53;5015981;28;20210;-74
2022/12/23 07:31:14;;;;;;;10.10;4.60;;;;;;;8.97;100.00;99553.53;5015612;28;20277;-73
2022/12/23 07:33:40;;;;;;;5.70;3.60;;;;;;;8.94;100.00;99560.91;5016461;28;20227;-74
2022/12/23 07:36:07;;;;;;;5.75;3.72;;;;;;;9.01;100.00;99564.16;5018147;28;20202;-75
2022/12/23 07:38:34;;;;;;;4.75;3.78;;;;;;;9.08;100.00;99568.25;5016028;28;20554;-74
2022/12/23 07:41:00;;;;;;;7.00;5.15;;;;;;;9.17;100.00;99583.88;5015459;28;20259;-76
2022/12/23 07:43:28;;;;;;;7.13;5.03;;;;;;;9.10;100.00;99586.00;5016260;28;20195;-75
2022/12/23 07:45:55;;;;;;;11.63;5.25;;;;;;;9.15;100.00;99583.94;5016735;28;20202;-75
2022/12/23 07:48:21;;;;;;;7.50;4.72;;;;;;;9.19;100.00;99598.09;5015896;28;20203;-74
2022/12/23 07:50:48;;;;;;;7.75;5.35;;;;;;;9.18;100.00;99591.00;5015707;28;20311;-74
2022/12/23 07:53:14;;;;;;;9.32;6.25;;;;;;;9.16;100.00;99598.25;5016768;28;20237;-75
2022/12/23 07:55:41;;;;;;;11.98;6.45;;;;;;;9.27;100.00;99612.00;5016797;28;20203;-76
2022/12/23 07:58:08;;;;;;;9.73;6.47;;;;;;;9.29;100.00;99610.06;5015281;28;20199;-73
2022/12/23 08:00:35;;;;;;;7.88;6.03;;;;;;;9.34;100.00;99608.03;5017143;28;20210;-75
2022/12/23 08:03:02;;;;;;;11.02;7.60;;;;;;;9.30;100.00;99614.53;5018215;28;20187;-75
2022/12/23 08:05:29;;;;;;;11.23;6.47;;;;;;;9.25;100.00;99607.63;5020206;28;20509;-73
2022/12/23 08:07:55;;;;;;;10.80;7.55;;;;;;;9.32;100.00;99601.00;5022139;28;20213;-75
2022/12/23 08:10:22;;;;;;;11.90;7.78;;;;;;;9.38;100.00;99604.25;5023802;28;20218;-74
2022/12/23 08:12:48;;;;;;;11.10;7.22;;;;;;;9.38;100.00;99603.34;5019180;28;20230;-74
2022/12/23 08:15:16;;;;;;;11.50;8.25;;;;;;;9.37;100.00;99596.25;5017717;28;20206;-73
2022/12/23 08:17:44;;;;;;;13.80;8.57;;;;;;;9.39;100.00;99591.66;5017831;28;20213;-76
2022/12/23 08:20:11;;;;;;;10.13;8.05;;;;;;;9.39;100.00;99594.34;5018068;28;20203;-75
2022/12/23 08:22:38;;;;;;;12.02;8.75;;;;;;;9.42;100.00;99579.88;5019107;28;20228;-75
2022/12/23 08:25:05;;;;;;;11.75;8.00;;;;;;;9.45;100.00;99587.78;5018579;28;20202;-75
2022/12/23 08:27:32;;;;;;;9.90;7.75;;;;;;;9.49;100.00;99592.91;5017193;28;20206;-74
2022/12/23 08:29:58;;;;;;;11.75;7.88;;;;;;;9.52;100.00;99592.75;5019997;28;20203;-73
2022/12/23 08:32:26;;;;;;;11.32;8.10;;;;;;;9.60;100.00;99593.19;5017844;28;20612;-75
2022/12/23 08:34:55;;;;;;;11.10;8.10;;;;;;;9.62;100.00;99590.44;5017299;28;20230;-74
2022/12/23 08:37:21;;;;;;;11.20;7.85;;;;;;;9.62;100.00;99592.25;5017120;28;20213;-74
2022/12/23 08:39:48;;;;;;;11.02;7.57;;;;;;;9.71;100.00;99592.59;5015973;28;20206;-75
2022/12/23 08:42:14;;;;;;;10.40;7.65;;;;;;;9.74;100.00;99597.81;5016732;28;20228;-74
2022/12/23 08:44:41;;;;;;;10.20;7.47;;;;;;;9.78;100.00;99593.16;5014903;28;20667;-74
2022/12/23 08:47:07;;;;;;;10.65;8.30;;;;;;;9.74;100.00;99591.56;5016358;28;20279;-74
2022/12/23 08:49:35;;;;;;;27.15;19.35;;;;;;;9.79;100.00;99590.38;5014959;28;20585;-74
2022/12/23 08:52:03;;;;;;;21.20;14.10;;;;;;;9.90;100.00;99586.22;5015677;28;20290;-75
2022/12/23 08:54:29;;;;;;;20.02;13.45;;;;;;;9.92;100.00;99598.63;5016923;28;20624;-74
2022/12/23 08:56:56;;;;;;;14.63;8.95;;;;;;;9.81;100.00;99599.22;5021726;28;20212;-75
2022/12/23 08:59:22;;;;;;;12.52;8.27;;;;;;;9.94;100.00;99615.53;5017855;28;20203;-73
2022/12/23 09:01:49;;;;;;;11.20;7.95;;;;;;;9.98;100.00;99611.72;5016097;28;20230;-75
2022/12/23 09:04:16;;;;;;;8.90;7.10;;;;;;;10.05;100.00;99611.41;5016050;28;20213;-75
2022/12/23 09:06:44;;;;;;;8.23;6.78;;;;;;;10.05;100.00;99612.25;5022534;28;20820;-75
2022/12/23 09:09:14;;;;;;;9.50;7.63;;;;;;;10.06;100.00;99613.97;5019460;28;20206;-76
2022/12/23 09:11:40;;;;;;;10.77;7.10;;;;;;;10.03;100.00;99623.09;5019738;28;20226;-76
2022/12/23 09:14:09;;;;;;;9.30;6.63;;;;;;;10.12;100.00;99618.19;5021686;28;20249;-74
2022/12/23 09:16:36;;;;;;;10.82;6.88;;;;;;;10.15;100.00;99615.31;5021010;28;20257;-75
2022/12/23 09:19:03;;;;;;;8.30;6.57;;;;;;;10.17;100.00;99625.00;5021585;28;20286;-75
2022/12/23 09:21:29;;;;;;;7.30;6.22;;;;;;;10.14;100.00;99630.59;5021369;28;20230;-74
2022/12/23 09:23:56;;;;;;;7.78;6.50;;;;;;;10.09;100.00;99627.28;5020070;28;20194;-74
2022/12/23 09:26:26;;;;;;;8.57;6.90;;;;;;;10.07;100.00;99629.19;5021759;28;20203;-75
2022/12/23 09:28:53;;;;;;;8.23;6.38;;;;;;;10.13;100.00;99622.59;5018300;28;20555;-75
2022/12/23 09:31:21;;;;;;;7.45;6.55;;;;;;;10.10;100.00;99618.25;5017039;28;20694;-75
2022/12/23 09:33:48;;;;;;;11.50;7.50;;;;;;;10.18;100.00;99625.91;5016678;28;20230;-74
2022/12/23 09:36:15;;;;;;;10.18;7.53;;;;;;;10.15;100.00;99626.94;5016171;28;20739;-74
2022/12/23 09:38:42;;;;;;;10.75;7.97;;;;;;;10.11;100.00;99620.00;5015512;28;20207;-76
2022/12/23 09:41:19;;;;;;;13.38;8.50;;;;;;;10.23;100.00;99608.53;5019629;28;20229;-74
2022/12/23 09:44:00;;;;;;;9.98;7.70;;;;;;;10.38;100.00;99597.91;5035066;28;20226;-73
2022/12/23 09:46:31;;;;;;;8.90;6.57;;;;;;;10.43;100.00;99596.66;5035518;28;20199;-71
2022/12/23 09:49:02;;;;;;;13.57;8.13;;;;;;;10.41;100.00;99606.66;5035691;28;20231;-73
2022/12/23 09:51:30;;;;;;;9.30;7.35;;;;;;;10.51;100.00;99608.81;5035707;28;20222;-72
2022/12/23 09:54:05;;;;;;;9.60;6.72;;;;;;;10.41;100.00;99611.19;5035277;28;20256;-74
2022/12/23 09:56:39;;;;;;;8.32;7.10;;;;;;;10.46;100.00;99601.00;5021460;28;20186;-75
2022/12/23 09:59:23;;;;;;;8.57;6.78;;;;;;;10.45;100.00;99599.28;5018997;28;20201;-75
2022/12/23 10:01:58;;;;;;;9.18;6.07;;;;;;;10.30;100.00;99602.84;5018433;28;20261;-74
2022/12/23 10:04:36;;;;;;;8.27;6.00;;;;;;;10.52;100.00;99613.25;5018875;28;20183;-76
2022/12/23 10:07:17;;;;;;;7.75;5.47;;;;;;;10.37;100.00;99623.06;5019021;28;20256;-76
2022/12/23 10:09:47;;;;;;;7.10;4.97;;;;;;;10.23;100.00;99613.91;5018618;28;20183;-74
2022/12/23 10:12:20;;;;;;;6.93;5.50;;;;;;;10.23;100.00;99607.69;5024197;28;20225;-75
2022/12/23 10:14:52;;;;;;;6.53;5.10;;;;;;;10.30;100.00;99592.09;5022558;28;20218;-74
2022/12/23 10:17:26;;;;;;;6.03;4.97;;;;;;;10.23;100.00;99584.31;5024491;28;20202;-73
2022/12/23 10:19:56;;;;;;;6.32;4.80;;;;;;;10.24;100.00;99593.25;5028996;28;20198;-74
2022/12/23 10:22:26;;;;;;;7.05;4.30;;;;;;;10.27;100.00;99589.53;5027027;28;20218;-74
2022/12/23 10:24:55;;;;;;;6.68;5.00;;;;;;;10.15;100.00;99593.78;5022732;28;20622;-74
2022/12/23 10:27:29;;;;;;;7.68;4.82;;;;;;;10.17;100.00;99576.59;5018046;28;20205;-75
2022/12/23 10:30:01;;;;;;;6.68;4.43;;;;;;;10.22;100.00;99569.16;5017852;28;20206;-75
2022/12/23 10:32:37;;;;;;;5.22;4.50;;;;;;;10.21;100.00;99564.69;5017907;28;20219;-74
2022/12/23 10:35:13;;;;;;;7.50;4.82;;;;;;;10.22;100.00;99558.38;5018973;28;20222;-75
2022/12/23 10:37:47;;;;;;;5.80;4.68;;;;;;;10.26;100.00;99561.75;5023826;28;20194;-75
2022/12/23 10:40:20;;;;;;;6.07;4.38;;;;;;;10.13;100.00;99560.72;5030639;28;20190;-74
2022/12/23 10:42:58;;;;;;;7.35;5.25;;;;;;;10.17;100.00;99547.00;5024958;28;20235;-74
2022/12/23 10:45:37;;;;;;;7.80;5.28;;;;;;;10.16;100.00;99553.34;5020194;28;20200;-73
2022/12/23 10:48:20;;;;;;;6.20;5.00;;;;;;;10.19;100.00;99542.38;5016480;28;20206;-74
2022/12/23 10:50:53;;;;;;;7.35;4.72;;;;;;;10.19;100.00;99547.78;5017227;28;20230;-74
2022/12/23 10:53:30;;;;;;;7.40;4.82;;;;;;;10.13;100.00;99540.06;5017356;28;20292;-74
2022/12/23 10:55:57;;;;;;;7.53;4.80;;;;;;;10.16;100.00;99529.13;5022902;28;20198;-73
2022/12/23 10:58:26;;;;;;;7.00;5.40;;;;;;;10.13;100.00;99541.88;5023198;28;20294;-75
2022/12/23 11:00:56;;;;;;;7.22;5.68;;;;;;;10.15;100.00;99524.72;5023776;28;20333;-75
2022/12/23 11:03:28;;;;;;;8.52;5.70;;;;;;;10.09;100.00;99519.69;5023964;28;20202;-76
2022/12/23 11:05:56;;;;;;;6.55;5.75;;;;;;;10.09;100.00;99503.53;5025211;28;20198;-76
2022/12/23 11:08:25;;;;;;;6.93;6.22;;;;;;;10.10;100.00;99499.88;5025848;28;20225;-72
2022/12/23 11:10:52;;;;;;;8.73;5.88;;;;;;;10.12;100.00;99500.66;5027320;28;20746;-74
2022/12/23 11:13:33;;;;;;;9.10;6.32;;;;;;;10.11;100.00;99492.69;5027356;28;20208;-76
2022/12/23 11:16:21;;;;;;;7.93;6.35;;;;;;;10.14;100.00;99484.44;5024470;28;20214;-73
2022/12/23 11:19:00;;;;;;;7.95;6.50;;;;;;;10.20;100.00;99481.41;5024712;28;20630;-74
2022/12/23 11:21:28;;;;;;;8.70;6.78;;;;;;;10.23;100.00;99476.69;5023282;28;20305;-73
2022/12/23 11:24:13;;;;;;;10.73;6.55;;;;;;;10.27;100.00;99472.00;5023798;28;20208;-74
2022/12/23 11:26:40;;;;;;;7.50;6.35;;;;;;;10.26;100.00;99459.47;5026531;28;20213;-73
2022/12/23 11:29:11;;;;;;;6.80;6.10;;;;;;;10.30;100.00;99453.00;5025578;28;20203;-74
2022/12/23 11:31:43;;;;;;;8.77;6.43;;;;;;;10.36;100.00;99449.97;5027954;28;20250;-73
2022/12/23 11:34:16;;;;;;;10.18;6.68;;;;;;;10.30;100.00;99441.38;5026724;28;20222;-74
2022/12/23 11:36:43;;;;;;;8.00;6.63;;;;;;;10.25;100.00;99438.06;5025710;28;20216;-73
2022/12/23 11:39:20;;;;;;;8.75;6.53;;;;;;;10.22;100.00;99439.97;5025441;28;20210;-74
2022/12/23 11:41:48;;;;;;;7.90;6.07;;;;;;;10.19;100.00;99429.38;5026467;28;20226;-73
2022/12/23 11:44:22;;;;;;;10.63;8.05;;;;;;;10.23;100.00;99430.94;5025690;28;20199;-73
2022/12/23 11:46:50;;;;;;;8.80;7.20;;;;;;;10.27;100.00;99423.56;5023599;28;20518;-73
2022/12/23 11:49:20;;;;;;;8.18;6.82;;;;;;;10.26;100.00;99418.25;5019824;28;20207;-73
2022/12/23 11:51:58;;;;;;;7.35;6.65;;;;;;;10.31;100.00;99417.09;5017666;28;20230;-76
2022/12/23 11:54:25;;;;;;;8.20;6.20;;;;;;;10.38;100.00;99406.81;5018106;28;20233;-74
2022/12/23 11:56:53;;;;;;;7.60;6.20;;;;;;;10.44;100.00;99404.59;5018592;28;20206;-75
2022/12/23 11:59:30;;;;;;;9.35;6.28;;;;;;;10.40;100.00;99400.38;5016418;28;20210;-75
2022/12/23 12:02:00;;;;;;;8.40;6.15;;;;;;;10.33;100.00;99390.91;5016837;28;20284;-73
2022/12/23 12:04:31;;;;;;;9.80;6.30;;;;;;;10.45;100.00;99383.94;5017396;28;20277;-74
2022/12/23 12:06:59;;;;;;;8.38;6.00;;;;;;;10.47;100.00;99379.34;5019120;28;20213;-76